sensor_id;sensor_type;location;lat;lon;timestamp;temperature;humidity
58809;DHT22;44579;51.672;7.834;2022-08-03T00:01:48;22.70;58.20
58809;DHT22;44579;51.672;7.834;2022-08-03T00:04:16;22.70;58.40
58809;DHT22;44579;51.672;7.834;2022-08-03T00:06:43;22.70;58.60
58809;DHT22;44579;51.672;7.834;2022-08-03T00:09:10;22.60;58.70
58809;DHT22;44579;51.672;7.834;2022-08-03T00:11:37;22.60;58.80
58809;DHT22;44579;51.672;7.834;2022-08-03T00:14:05;22.60;58.80
58809;DHT22;44579;51.672;7.834;2022-08-03T00:16:32;22.50;58.90
58809;DHT22;44579;51.672;7.834;2022-08-03T00:18:59;22.40;59.00
58809;DHT22;44579;51.672;7.834;2022-08-03T00:21:27;22.40;59.20
58809;DHT22;44579;51.672;7.834;2022-08-03T00:23:54;22.40;59.30
58809;DHT22;44579;51.672;7.834;2022-08-03T00:26:20;22.40;59.40
58809;DHT22;44579;51.672;7.834;2022-08-03T00:28:48;22.40;59.40
58809;DHT22;44579;51.672;7.834;2022-08-03T00:31:15;22.30;59.50
58809;DHT22;44579;51.672;7.834;2022-08-03T00:33:48;22.30;59.60
58809;DHT22;44579;51.672;7.834;2022-08-03T00:36:24;22.30;59.70
58809;DHT22;44579;51.672;7.834;2022-08-03T00:38:51;22.30;59.70
58809;DHT22;44579;51.672;7.834;2022-08-03T00:41:18;22.20;59.80
58809;DHT22;44579;51.672;7.834;2022-08-03T00:43:44;22.20;59.90
58809;DHT22;44579;51.672;7.834;2022-08-03T00:46:13;22.20;59.80
58809;DHT22;44579;51.672;7.834;2022-08-03T00:48:47;22.20;59.80
58809;DHT22;44579;51.672;7.834;2022-08-03T00:51:14;22.20;59.90
58809;DHT22;44579;51.672;7.834;2022-08-03T00:53:41;22.20;59.90
58809;DHT22;44579;51.672;7.834;2022-08-03T00:56:08;22.20;60.10
58809;DHT22;44579;51.672;7.834;2022-08-03T00:58:35;22.10;60.20
58809;DHT22;44579;51.672;7.834;2022-08-03T01:01:02;22.10;60.30
58809;DHT22;44579;51.672;7.834;2022-08-03T01:03:32;22.10;60.40
58809;DHT22;44579;51.672;7.834;2022-08-03T01:06:18;22.10;60.60
58809;DHT22;44579;51.672;7.834;2022-08-03T01:11:19;22.10;60.60
58809;DHT22;44579;51.672;7.834;2022-08-03T01:14:17;22.00;60.70
58809;DHT22;44579;51.672;7.834;2022-08-03T01:17:11;22.00;61.00
58809;DHT22;44579;51.672;7.834;2022-08-03T01:25:39;21.80;61.20
58809;DHT22;44579;51.672;7.834;2022-08-03T01:31:09;21.80;61.30
58809;DHT22;44579;51.672;7.834;2022-08-03T01:33:43;21.80;61.40
58809;DHT22;44579;51.672;7.834;2022-08-03T01:36:17;21.80;61.60
58809;DHT22;44579;51.672;7.834;2022-08-03T01:38:53;21.80;61.60
58809;DHT22;44579;51.672;7.834;2022-08-03T01:41:24;21.70;61.60
58809;DHT22;44579;51.672;7.834;2022-08-03T01:43:53;21.70;61.80
58809;DHT22;44579;51.672;7.834;2022-08-03T01:46:42;21.70;61.90
58809;DHT22;44579;51.672;7.834;2022-08-03T01:49:15;21.70;62.00
58809;DHT22;44579;51.672;7.834;2022-08-03T01:51:44;21.70;62.00
58809;DHT22;44579;51.672;7.834;2022-08-03T01:54:33;21.70;62.20
58809;DHT22;44579;51.672;7.834;2022-08-03T01:57:02;21.60;62.30
58809;DHT22;44579;51.672;7.834;2022-08-03T01:59:31;21.60;62.40
58809;DHT22;44579;51.672;7.834;2022-08-03T02:02:11;21.60;62.40
58809;DHT22;44579;51.672;7.834;2022-08-03T02:04:59;21.60;62.30
58809;DHT22;44579;51.672;7.834;2022-08-03T02:07:28;21.60;62.50
58809;DHT22;44579;51.672;7.834;2022-08-03T02:09:56;21.60;62.50
58809;DHT22;44579;51.672;7.834;2022-08-03T02:12:25;21.50;62.60
58809;DHT22;44579;51.672;7.834;2022-08-03T02:14:54;21.50;62.70
58809;DHT22;44579;51.672;7.834;2022-08-03T02:17:27;21.50;62.90
58809;DHT22;44579;51.672;7.834;2022-08-03T02:20:10;21.40;63.10
58809;DHT22;44579;51.672;7.834;2022-08-03T02:22:42;21.40;63.30
58809;DHT22;44579;51.672;7.834;2022-08-03T02:25:11;21.40;63.40
58809;DHT22;44579;51.672;7.834;2022-08-03T02:27:45;21.30;63.40
58809;DHT22;44579;51.672;7.834;2022-08-03T02:30:13;21.30;63.70
58809;DHT22;44579;51.672;7.834;2022-08-03T02:32:43;21.30;63.60
58809;DHT22;44579;51.672;7.834;2022-08-03T02:35:14;21.30;63.50
58809;DHT22;44579;51.672;7.834;2022-08-03T02:37:52;21.30;63.70
58809;DHT22;44579;51.672;7.834;2022-08-03T02:40:22;21.30;63.90
58809;DHT22;44579;51.672;7.834;2022-08-03T02:42:52;21.20;64.00
58809;DHT22;44579;51.672;7.834;2022-08-03T02:45:22;21.20;64.10
58809;DHT22;44579;51.672;7.834;2022-08-03T02:47:52;21.20;64.10
58809;DHT22;44579;51.672;7.834;2022-08-03T02:50:22;21.20;64.10
58809;DHT22;44579;51.672;7.834;2022-08-03T02:52:51;21.20;64.00
58809;DHT22;44579;51.672;7.834;2022-08-03T02:55:20;21.20;64.20
58809;DHT22;44579;51.672;7.834;2022-08-03T02:57:47;21.20;64.30
58809;DHT22;44579;51.672;7.834;2022-08-03T03:00:15;21.20;64.30
58809;DHT22;44579;51.672;7.834;2022-08-03T03:02:55;21.20;64.40
58809;DHT22;44579;51.672;7.834;2022-08-03T03:05:23;21.10;64.40
58809;DHT22;44579;51.672;7.834;2022-08-03T03:08:16;21.10;64.60
58809;DHT22;44579;51.672;7.834;2022-08-03T03:10:48;21.00;64.80
58809;DHT22;44579;51.672;7.834;2022-08-03T03:13:21;21.00;64.90
58809;DHT22;44579;51.672;7.834;2022-08-03T03:15:48;21.00;65.10
58809;DHT22;44579;51.672;7.834;2022-08-03T03:18:16;20.90;64.90
58809;DHT22;44579;51.672;7.834;2022-08-03T03:20:48;20.90;65.30
58809;DHT22;44579;51.672;7.834;2022-08-03T03:23:17;20.90;65.30
58809;DHT22;44579;51.672;7.834;2022-08-03T03:25:44;20.80;65.20
58809;DHT22;44579;51.672;7.834;2022-08-03T03:28:12;20.90;65.30
58809;DHT22;44579;51.672;7.834;2022-08-03T03:30:39;20.80;65.40
58809;DHT22;44579;51.672;7.834;2022-08-03T03:33:06;20.80;65.40
58809;DHT22;44579;51.672;7.834;2022-08-03T03:35:33;20.90;65.30
58809;DHT22;44579;51.672;7.834;2022-08-03T03:38:05;20.80;66.20
58809;DHT22;44579;51.672;7.834;2022-08-03T03:40:34;20.80;65.40
58809;DHT22;44579;51.672;7.834;2022-08-03T03:43:02;20.80;65.50
58809;DHT22;44579;51.672;7.834;2022-08-03T03:45:30;20.80;65.60
58809;DHT22;44579;51.672;7.834;2022-08-03T03:48:00;20.70;65.70
58809;DHT22;44579;51.672;7.834;2022-08-03T03:50:27;20.70;65.80
58809;DHT22;44579;51.672;7.834;2022-08-03T03:52:55;20.70;66.00
58809;DHT22;44579;51.672;7.834;2022-08-03T03:55:22;20.70;66.20
58809;DHT22;44579;51.672;7.834;2022-08-03T03:57:49;20.60;66.30
58809;DHT22;44579;51.672;7.834;2022-08-03T04:00:17;20.60;66.60
58809;DHT22;44579;51.672;7.834;2022-08-03T04:02:45;20.50;66.70
58809;DHT22;44579;51.672;7.834;2022-08-03T04:05:13;20.60;66.80
58809;DHT22;44579;51.672;7.834;2022-08-03T04:08:00;20.60;66.70
58809;DHT22;44579;51.672;7.834;2022-08-03T04:11:13;20.60;66.60
58809;DHT22;44579;51.672;7.834;2022-08-03T04:13:52;20.60;66.60
58809;DHT22;44579;51.672;7.834;2022-08-03T04:16:24;20.60;66.50
58809;DHT22;44579;51.672;7.834;2022-08-03T04:18:56;20.70;66.50
58809;DHT22;44579;51.672;7.834;2022-08-03T04:21:24;20.70;66.50
58809;DHT22;44579;51.672;7.834;2022-08-03T04:23:54;20.70;66.40
58809;DHT22;44579;51.672;7.834;2022-08-03T04:26:26;20.70;66.60
58809;DHT22;44579;51.672;7.834;2022-08-03T04:28:56;20.70;66.60
58809;DHT22;44579;51.672;7.834;2022-08-03T04:31:24;20.70;66.50
58809;DHT22;44579;51.672;7.834;2022-08-03T04:33:53;20.70;66.50
58809;DHT22;44579;51.672;7.834;2022-08-03T04:36:24;20.80;66.60
58809;DHT22;44579;51.672;7.834;2022-08-03T04:39:00;20.80;66.70
58809;DHT22;44579;51.672;7.834;2022-08-03T04:41:29;20.80;66.80
58809;DHT22;44579;51.672;7.834;2022-08-03T04:43:58;20.80;66.80
58809;DHT22;44579;51.672;7.834;2022-08-03T04:46:28;20.80;66.70
58809;DHT22;44579;51.672;7.834;2022-08-03T04:48:56;20.90;66.70
58809;DHT22;44579;51.672;7.834;2022-08-03T04:51:24;20.90;66.70
58809;DHT22;44579;51.672;7.834;2022-08-03T04:53:51;21.00;66.80
58809;DHT22;44579;51.672;7.834;2022-08-03T04:56:18;21.10;66.90
58809;DHT22;44579;51.672;7.834;2022-08-03T04:58:45;21.30;67.40
58809;DHT22;44579;51.672;7.834;2022-08-03T05:01:12;21.60;67.80
58809;DHT22;44579;51.672;7.834;2022-08-03T05:03:38;21.80;68.10
58809;DHT22;44579;51.672;7.834;2022-08-03T05:06:06;22.10;68.40
58809;DHT22;44579;51.672;7.834;2022-08-03T05:08:37;22.30;68.60
58809;DHT22;44579;51.672;7.834;2022-08-03T05:11:14;22.70;68.70
58809;DHT22;44579;51.672;7.834;2022-08-03T05:13:42;23.00;68.40
58809;DHT22;44579;51.672;7.834;2022-08-03T05:16:09;23.20;68.50
58809;DHT22;44579;51.672;7.834;2022-08-03T05:18:37;23.40;68.60
58809;DHT22;44579;51.672;7.834;2022-08-03T05:21:04;23.60;68.60
58809;DHT22;44579;51.672;7.834;2022-08-03T05:23:34;24.00;68.40
58809;DHT22;44579;51.672;7.834;2022-08-03T05:26:01;24.20;67.80
58809;DHT22;44579;51.672;7.834;2022-08-03T05:28:27;24.30;67.80
58809;DHT22;44579;51.672;7.834;2022-08-03T05:30:55;24.50;67.90
58809;DHT22;44579;51.672;7.834;2022-08-03T05:33:22;24.70;67.60
58809;DHT22;44579;51.672;7.834;2022-08-03T05:35:48;24.80;67.70
58809;DHT22;44579;51.672;7.834;2022-08-03T05:38:30;24.90;68.00
58809;DHT22;44579;51.672;7.834;2022-08-03T05:41:02;25.20;67.60
58809;DHT22;44579;51.672;7.834;2022-08-03T05:43:50;25.40;66.90
58809;DHT22;44579;51.672;7.834;2022-08-03T05:46:17;25.60;66.40
58809;DHT22;44579;51.672;7.834;2022-08-03T05:48:43;25.70;66.10
58809;DHT22;44579;51.672;7.834;2022-08-03T05:51:10;25.70;66.00
58809;DHT22;44579;51.672;7.834;2022-08-03T05:53:39;25.70;66.10
58809;DHT22;44579;51.672;7.834;2022-08-03T05:56:06;25.80;65.80
58809;DHT22;44579;51.672;7.834;2022-08-03T05:58:47;26.00;65.60
58809;DHT22;44579;51.672;7.834;2022-08-03T06:01:15;26.20;65.20
58809;DHT22;44579;51.672;7.834;2022-08-03T06:03:43;26.30;64.90
58809;DHT22;44579;51.672;7.834;2022-08-03T06:06:10;26.50;64.40
58809;DHT22;44579;51.672;7.834;2022-08-03T06:08:38;26.60;64.10
58809;DHT22;44579;51.672;7.834;2022-08-03T06:11:05;26.70;63.90
58809;DHT22;44579;51.672;7.834;2022-08-03T06:13:32;26.80;64.00
58809;DHT22;44579;51.672;7.834;2022-08-03T06:15:59;26.80;64.00
58809;DHT22;44579;51.672;7.834;2022-08-03T06:18:26;26.70;63.70
58809;DHT22;44579;51.672;7.834;2022-08-03T06:20:53;26.70;63.40
58809;DHT22;44579;51.672;7.834;2022-08-03T06:23:20;26.60;62.90
58809;DHT22;44579;51.672;7.834;2022-08-03T06:25:47;26.60;62.30
58809;DHT22;44579;51.672;7.834;2022-08-03T06:28:14;26.50;62.40
58809;DHT22;44579;51.672;7.834;2022-08-03T06:31:03;26.40;62.50
58809;DHT22;44579;51.672;7.834;2022-08-03T06:33:32;26.40;62.30
58809;DHT22;44579;51.672;7.834;2022-08-03T06:36:19;26.30;61.90
58809;DHT22;44579;51.672;7.834;2022-08-03T06:38:46;26.20;61.60
58809;DHT22;44579;51.672;7.834;2022-08-03T06:41:12;26.20;61.60
58809;DHT22;44579;51.672;7.834;2022-08-03T06:43:39;26.10;61.60
58809;DHT22;44579;51.672;7.834;2022-08-03T06:46:26;26.00;61.40
58809;DHT22;44579;51.672;7.834;2022-08-03T06:48:53;26.00;61.00
58809;DHT22;44579;51.672;7.834;2022-08-03T06:51:21;26.00;60.70
58809;DHT22;44579;51.672;7.834;2022-08-03T06:54:09;26.00;60.50
58809;DHT22;44579;51.672;7.834;2022-08-03T06:56:36;26.00;60.40
58809;DHT22;44579;51.672;7.834;2022-08-03T06:59:03;25.90;60.10
58809;DHT22;44579;51.672;7.834;2022-08-03T07:01:30;25.90;60.10
58809;DHT22;44579;51.672;7.834;2022-08-03T07:03:57;25.90;59.90
58809;DHT22;44579;51.672;7.834;2022-08-03T07:06:23;25.90;59.80
58809;DHT22;44579;51.672;7.834;2022-08-03T07:08:50;25.90;59.70
58809;DHT22;44579;51.672;7.834;2022-08-03T07:11:22;26.00;59.60
58809;DHT22;44579;51.672;7.834;2022-08-03T07:13:48;25.90;59.30
58809;DHT22;44579;51.672;7.834;2022-08-03T07:16:15;26.00;59.30
58809;DHT22;44579;51.672;7.834;2022-08-03T07:18:43;26.00;59.30
58809;DHT22;44579;51.672;7.834;2022-08-03T07:21:11;26.00;59.30
58809;DHT22;44579;51.672;7.834;2022-08-03T07:23:38;26.00;59.20
58809;DHT22;44579;51.672;7.834;2022-08-03T07:26:04;26.00;59.10
58809;DHT22;44579;51.672;7.834;2022-08-03T07:28:31;26.00;59.20
58809;DHT22;44579;51.672;7.834;2022-08-03T07:30:58;26.00;59.20
58809;DHT22;44579;51.672;7.834;2022-08-03T07:33:25;26.00;59.00
58809;DHT22;44579;51.672;7.834;2022-08-03T07:35:52;26.10;58.90
58809;DHT22;44579;51.672;7.834;2022-08-03T07:38:19;26.20;58.70
58809;DHT22;44579;51.672;7.834;2022-08-03T07:40:47;26.20;58.60
58809;DHT22;44579;51.672;7.834;2022-08-03T07:43:13;26.20;58.60
58809;DHT22;44579;51.672;7.834;2022-08-03T07:45:40;26.20;58.30
58809;DHT22;44579;51.672;7.834;2022-08-03T07:48:07;26.20;58.30
58809;DHT22;44579;51.672;7.834;2022-08-03T07:50:38;26.20;58.30
58809;DHT22;44579;51.672;7.834;2022-08-03T07:53:04;26.20;58.20
58809;DHT22;44579;51.672;7.834;2022-08-03T07:55:31;26.10;58.10
58809;DHT22;44579;51.672;7.834;2022-08-03T07:58:10;26.10;58.20
58809;DHT22;44579;51.672;7.834;2022-08-03T08:00:49;26.20;58.10
58809;DHT22;44579;51.672;7.834;2022-08-03T08:03:18;26.30;58.00
58809;DHT22;44579;51.672;7.834;2022-08-03T08:05:47;26.30;58.00
58809;DHT22;44579;51.672;7.834;2022-08-03T08:08:14;26.30;57.90
58809;DHT22;44579;51.672;7.834;2022-08-03T08:10:42;26.30;57.90
58809;DHT22;44579;51.672;7.834;2022-08-03T08:13:24;26.40;57.90
58809;DHT22;44579;51.672;7.834;2022-08-03T08:15:51;26.40;57.70
58809;DHT22;44579;51.672;7.834;2022-08-03T08:18:17;26.50;57.70
58809;DHT22;44579;51.672;7.834;2022-08-03T08:20:44;26.60;57.60
58809;DHT22;44579;51.672;7.834;2022-08-03T08:23:11;26.70;57.40
58809;DHT22;44579;51.672;7.834;2022-08-03T08:25:58;26.70;57.40
58809;DHT22;44579;51.672;7.834;2022-08-03T08:28:25;26.90;57.50
58809;DHT22;44579;51.672;7.834;2022-08-03T08:30:59;27.00;57.20
58809;DHT22;44579;51.672;7.834;2022-08-03T08:33:27;27.00;56.90
58809;DHT22;44579;51.672;7.834;2022-08-03T08:36:14;27.20;56.80
58809;DHT22;44579;51.672;7.834;2022-08-03T08:38:42;27.30;56.70
58809;DHT22;44579;51.672;7.834;2022-08-03T08:41:11;27.40;56.40
58809;DHT22;44579;51.672;7.834;2022-08-03T08:43:39;27.50;56.30
58809;DHT22;44579;51.672;7.834;2022-08-03T08:46:06;27.50;56.10
58809;DHT22;44579;51.672;7.834;2022-08-03T08:48:36;27.40;55.90
58809;DHT22;44579;51.672;7.834;2022-08-03T08:51:05;27.40;56.00
58809;DHT22;44579;51.672;7.834;2022-08-03T08:53:35;27.50;56.10
58809;DHT22;44579;51.672;7.834;2022-08-03T08:56:04;27.60;56.00
58809;DHT22;44579;51.672;7.834;2022-08-03T08:58:36;27.60;55.80
58809;DHT22;44579;51.672;7.834;2022-08-03T09:01:04;27.60;55.70
58809;DHT22;44579;51.672;7.834;2022-08-03T09:03:35;27.60;55.50
58809;DHT22;44579;51.672;7.834;2022-08-03T09:06:02;27.70;55.30
58809;DHT22;44579;51.672;7.834;2022-08-03T09:08:30;27.70;55.30
58809;DHT22;44579;51.672;7.834;2022-08-03T09:10:58;27.70;55.20
58809;DHT22;44579;51.672;7.834;2022-08-03T09:13:24;27.80;55.10
58809;DHT22;44579;51.672;7.834;2022-08-03T09:18:38;27.90;55.10
58809;DHT22;44579;51.672;7.834;2022-08-03T09:21:12;27.90;55.20
58809;DHT22;44579;51.672;7.834;2022-08-03T09:23:58;28.00;55.00
58809;DHT22;44579;51.672;7.834;2022-08-03T09:26:32;28.10;54.60
58809;DHT22;44579;51.672;7.834;2022-08-03T09:31:42;28.10;54.40
58809;DHT22;44579;51.672;7.834;2022-08-03T09:34:12;28.20;54.40
58809;DHT22;44579;51.672;7.834;2022-08-03T09:36:43;28.30;54.90
58809;DHT22;44579;51.672;7.834;2022-08-03T09:39:22;28.40;54.00
58809;DHT22;44579;51.672;7.834;2022-08-03T09:42:10;28.50;53.60
58809;DHT22;44579;51.672;7.834;2022-08-03T09:44:43;28.40;53.10
58809;DHT22;44579;51.672;7.834;2022-08-03T09:47:11;28.50;53.20
58809;DHT22;44579;51.672;7.834;2022-08-03T09:49:40;28.60;53.30
58809;DHT22;44579;51.672;7.834;2022-08-03T09:52:18;28.70;53.10
58809;DHT22;44579;51.672;7.834;2022-08-03T09:55:10;28.80;52.80
58809;DHT22;44579;51.672;7.834;2022-08-03T09:58:05;28.90;52.70
58809;DHT22;44579;51.672;7.834;2022-08-03T10:00:52;28.90;52.50
58809;DHT22;44579;51.672;7.834;2022-08-03T10:03:20;29.00;52.50
58809;DHT22;44579;51.672;7.834;2022-08-03T10:05:47;29.10;52.60
58809;DHT22;44579;51.672;7.834;2022-08-03T10:08:15;29.30;52.50
58809;DHT22;44579;51.672;7.834;2022-08-03T10:10:43;29.40;52.50
58809;DHT22;44579;51.672;7.834;2022-08-03T10:13:12;29.40;52.10
58809;DHT22;44579;51.672;7.834;2022-08-03T10:15:40;29.30;51.90
58809;DHT22;44579;51.672;7.834;2022-08-03T10:18:27;29.20;51.80
58809;DHT22;44579;51.672;7.834;2022-08-03T10:20:58;29.10;51.80
58809;DHT22;44579;51.672;7.834;2022-08-03T10:23:28;29.10;51.80
58809;DHT22;44579;51.672;7.834;2022-08-03T10:26:02;29.20;51.80
58809;DHT22;44579;51.672;7.834;2022-08-03T10:28:34;29.30;51.60
58809;DHT22;44579;51.672;7.834;2022-08-03T10:31:07;29.30;51.20
58809;DHT22;44579;51.672;7.834;2022-08-03T10:33:40;29.30;51.20
58809;DHT22;44579;51.672;7.834;2022-08-03T10:36:21;29.30;50.90
58809;DHT22;44579;51.672;7.834;2022-08-03T10:38:50;29.40;50.90
58809;DHT22;44579;51.672;7.834;2022-08-03T10:41:25;29.50;50.90
58809;DHT22;44579;51.672;7.834;2022-08-03T10:44:12;29.60;50.60
58809;DHT22;44579;51.672;7.834;2022-08-03T10:46:42;29.70;50.50
58809;DHT22;44579;51.672;7.834;2022-08-03T10:49:15;29.70;50.30
58809;DHT22;44579;51.672;7.834;2022-08-03T10:52:01;29.60;49.60
58809;DHT22;44579;51.672;7.834;2022-08-03T10:54:49;29.60;49.70
58809;DHT22;44579;51.672;7.834;2022-08-03T10:57:48;29.60;49.70
58809;DHT22;44579;51.672;7.834;2022-08-03T11:00:21;29.60;49.10
58809;DHT22;44579;51.672;7.834;2022-08-03T11:03:05;29.60;49.90
58809;DHT22;44579;51.672;7.834;2022-08-03T11:05:35;29.60;49.20
58809;DHT22;44579;51.672;7.834;2022-08-03T11:10:45;29.70;49.10
58809;DHT22;44579;51.672;7.834;2022-08-03T11:13:18;29.70;49.10
58809;DHT22;44579;51.672;7.834;2022-08-03T11:15:47;29.70;48.80
58809;DHT22;44579;51.672;7.834;2022-08-03T11:18:14;29.70;48.80
58809;DHT22;44579;51.672;7.834;2022-08-03T11:23:15;29.70;48.90
58809;DHT22;44579;51.672;7.834;2022-08-03T11:26:08;29.70;48.70
58809;DHT22;44579;51.672;7.834;2022-08-03T11:28:35;29.70;48.30
58809;DHT22;44579;51.672;7.834;2022-08-03T11:34:13;29.70;48.40
58809;DHT22;44579;51.672;7.834;2022-08-03T11:37:19;29.70;48.50
58809;DHT22;44579;51.672;7.834;2022-08-03T11:39:53;29.70;48.30
58809;DHT22;44579;51.672;7.834;2022-08-03T11:44:53;29.90;47.90
58809;DHT22;44579;51.672;7.834;2022-08-03T11:47:21;30.00;47.80
58809;DHT22;44579;51.672;7.834;2022-08-03T11:49:52;29.90;47.30
58809;DHT22;44579;51.672;7.834;2022-08-03T11:52:19;29.90;47.00
58809;DHT22;44579;51.672;7.834;2022-08-03T11:54:53;29.90;47.00
58809;DHT22;44579;51.672;7.834;2022-08-03T11:57:33;29.90;46.80
58809;DHT22;44579;51.672;7.834;2022-08-03T12:00:31;30.00;46.00
58809;DHT22;44579;51.672;7.834;2022-08-03T12:03:11;30.00;46.90
58809;DHT22;44579;51.672;7.834;2022-08-03T12:05:42;30.00;46.30
58809;DHT22;44579;51.672;7.834;2022-08-03T12:10:55;30.10;46.50
58809;DHT22;44579;51.672;7.834;2022-08-03T12:13:23;30.10;46.50
58809;DHT22;44579;51.672;7.834;2022-08-03T12:16:23;30.10;46.50
58809;DHT22;44579;51.672;7.834;2022-08-03T12:19:03;30.20;46.10
58809;DHT22;44579;51.672;7.834;2022-08-03T12:21:31;30.20;45.80
58809;DHT22;44579;51.672;7.834;2022-08-03T12:24:03;30.20;45.50
58809;DHT22;44579;51.672;7.834;2022-08-03T12:26:50;30.10;45.50
58809;DHT22;44579;51.672;7.834;2022-08-03T12:29:26;30.10;44.90
58809;DHT22;44579;51.672;7.834;2022-08-03T12:31:53;30.10;44.90
58809;DHT22;44579;51.672;7.834;2022-08-03T12:34:22;30.20;45.00
58809;DHT22;44579;51.672;7.834;2022-08-03T12:36:51;30.20;45.10
58809;DHT22;44579;51.672;7.834;2022-08-03T12:39:22;30.20;45.20
58809;DHT22;44579;51.672;7.834;2022-08-03T12:41:53;30.30;45.10
58809;DHT22;44579;51.672;7.834;2022-08-03T12:44:31;30.30;45.10
58809;DHT22;44579;51.672;7.834;2022-08-03T12:46:59;30.30;45.00
58809;DHT22;44579;51.672;7.834;2022-08-03T12:49:26;30.30;45.20
58809;DHT22;44579;51.672;7.834;2022-08-03T12:51:58;30.40;45.30
58809;DHT22;44579;51.672;7.834;2022-08-03T12:54:32;30.40;45.30
58809;DHT22;44579;51.672;7.834;2022-08-03T12:57:04;30.50;45.20
58809;DHT22;44579;51.672;7.834;2022-08-03T12:59:39;30.50;45.10
58809;DHT22;44579;51.672;7.834;2022-08-03T13:02:20;30.50;45.10
58809;DHT22;44579;51.672;7.834;2022-08-03T13:04:51;30.50;45.10
58809;DHT22;44579;51.672;7.834;2022-08-03T13:07:19;30.50;45.00
58809;DHT22;44579;51.672;7.834;2022-08-03T13:09:48;30.50;45.00
58809;DHT22;44579;51.672;7.834;2022-08-03T13:12:18;30.60;44.90
58809;DHT22;44579;51.672;7.834;2022-08-03T13:14:59;30.60;45.00
58809;DHT22;44579;51.672;7.834;2022-08-03T13:17:26;30.60;44.90
58809;DHT22;44579;51.672;7.834;2022-08-03T13:19:53;30.50;44.80
58809;DHT22;44579;51.672;7.834;2022-08-03T13:22:22;30.70;45.00
58809;DHT22;44579;51.672;7.834;2022-08-03T13:24:51;30.70;45.00
58809;DHT22;44579;51.672;7.834;2022-08-03T13:27:18;30.70;44.80
58809;DHT22;44579;51.672;7.834;2022-08-03T13:30:06;30.70;44.70
58809;DHT22;44579;51.672;7.834;2022-08-03T13:32:33;30.70;44.10
58809;DHT22;44579;51.672;7.834;2022-08-03T13:35:01;30.70;44.10
58809;DHT22;44579;51.672;7.834;2022-08-03T13:37:29;30.70;44.10
58809;DHT22;44579;51.672;7.834;2022-08-03T13:39:59;30.70;44.00
58809;DHT22;44579;51.672;7.834;2022-08-03T13:42:30;30.70;43.80
58809;DHT22;44579;51.672;7.834;2022-08-03T13:44:58;30.70;43.80
58809;DHT22;44579;51.672;7.834;2022-08-03T13:47:25;30.70;43.70
58809;DHT22;44579;51.672;7.834;2022-08-03T13:49:54;30.70;43.80
58809;DHT22;44579;51.672;7.834;2022-08-03T13:52:37;30.80;43.80
58809;DHT22;44579;51.672;7.834;2022-08-03T13:55:05;30.80;43.70
58809;DHT22;44579;51.672;7.834;2022-08-03T13:57:33;30.80;43.70
58809;DHT22;44579;51.672;7.834;2022-08-03T14:00:20;30.80;43.70
58809;DHT22;44579;51.672;7.834;2022-08-03T14:02:55;30.80;43.70
58809;DHT22;44579;51.672;7.834;2022-08-03T14:05:31;30.80;43.70
58809;DHT22;44579;51.672;7.834;2022-08-03T14:07:59;30.80;43.80
58809;DHT22;44579;51.672;7.834;2022-08-03T14:10:32;30.80;43.80
58809;DHT22;44579;51.672;7.834;2022-08-03T14:12:59;30.80;43.80
58809;DHT22;44579;51.672;7.834;2022-08-03T14:15:26;30.80;43.70
58809;DHT22;44579;51.672;7.834;2022-08-03T14:17:54;30.80;43.70
58809;DHT22;44579;51.672;7.834;2022-08-03T14:20:25;30.90;43.70
58809;DHT22;44579;51.672;7.834;2022-08-03T14:23:13;30.90;43.60
58809;DHT22;44579;51.672;7.834;2022-08-03T14:25:40;31.00;43.70
58809;DHT22;44579;51.672;7.834;2022-08-03T14:28:17;31.00;43.50
58809;DHT22;44579;51.672;7.834;2022-08-03T14:30:44;31.00;43.50
58809;DHT22;44579;51.672;7.834;2022-08-03T14:33:11;31.10;43.60
58809;DHT22;44579;51.672;7.834;2022-08-03T14:35:38;31.10;43.50
58809;DHT22;44579;51.672;7.834;2022-08-03T14:38:04;31.20;43.50
58809;DHT22;44579;51.672;7.834;2022-08-03T14:40:31;31.30;43.40
58809;DHT22;44579;51.672;7.834;2022-08-03T14:42:58;31.30;43.50
58809;DHT22;44579;51.672;7.834;2022-08-03T14:45:25;31.30;43.40
58809;DHT22;44579;51.672;7.834;2022-08-03T14:47:52;31.30;43.50
58809;DHT22;44579;51.672;7.834;2022-08-03T14:50:38;31.30;43.50
58809;DHT22;44579;51.672;7.834;2022-08-03T14:53:12;31.30;43.40
58809;DHT22;44579;51.672;7.834;2022-08-03T14:55:39;31.40;43.40
58809;DHT22;44579;51.672;7.834;2022-08-03T14:58:18;31.40;43.30
58809;DHT22;44579;51.672;7.834;2022-08-03T15:00:48;31.60;43.30
58809;DHT22;44579;51.672;7.834;2022-08-03T15:03:15;31.70;43.10
58809;DHT22;44579;51.672;7.834;2022-08-03T15:05:43;31.80;43.00
58809;DHT22;44579;51.672;7.834;2022-08-03T15:08:10;31.80;42.80
58809;DHT22;44579;51.672;7.834;2022-08-03T15:10:37;31.90;42.80
58809;DHT22;44579;51.672;7.834;2022-08-03T15:13:11;31.90;42.90
58809;DHT22;44579;51.672;7.834;2022-08-03T15:15:38;31.90;42.90
58809;DHT22;44579;51.672;7.834;2022-08-03T15:18:05;31.90;42.80
58809;DHT22;44579;51.672;7.834;2022-08-03T15:20:32;31.90;42.80
58809;DHT22;44579;51.672;7.834;2022-08-03T15:23:11;31.90;42.60
58809;DHT22;44579;51.672;7.834;2022-08-03T15:25:38;31.90;42.60
58809;DHT22;44579;51.672;7.834;2022-08-03T15:28:25;31.90;42.60
58809;DHT22;44579;51.672;7.834;2022-08-03T15:30:52;32.00;42.60
58809;DHT22;44579;51.672;7.834;2022-08-03T15:33:19;32.00;42.40
58809;DHT22;44579;51.672;7.834;2022-08-03T15:35:45;32.10;42.50
58809;DHT22;44579;51.672;7.834;2022-08-03T15:38:13;32.10;42.40
58809;DHT22;44579;51.672;7.834;2022-08-03T15:40:40;32.10;42.40
58809;DHT22;44579;51.672;7.834;2022-08-03T15:43:07;32.10;42.30
58809;DHT22;44579;51.672;7.834;2022-08-03T15:45:34;32.10;42.20
58809;DHT22;44579;51.672;7.834;2022-08-03T15:48:04;32.10;42.10
58809;DHT22;44579;51.672;7.834;2022-08-03T15:50:31;32.10;42.10
58809;DHT22;44579;51.672;7.834;2022-08-03T15:52:58;32.00;42.00
58809;DHT22;44579;51.672;7.834;2022-08-03T15:55:24;32.00;42.00
58809;DHT22;44579;51.672;7.834;2022-08-03T15:57:51;32.00;42.10
58809;DHT22;44579;51.672;7.834;2022-08-03T16:00:40;32.00;42.20
58809;DHT22;44579;51.672;7.834;2022-08-03T16:03:07;32.00;42.10
58809;DHT22;44579;51.672;7.834;2022-08-03T16:05:34;32.00;41.90
58809;DHT22;44579;51.672;7.834;2022-08-03T16:08:01;32.00;41.80
58809;DHT22;44579;51.672;7.834;2022-08-03T16:10:30;31.90;41.80
58809;DHT22;44579;51.672;7.834;2022-08-03T16:12:57;31.90;41.70
58809;DHT22;44579;51.672;7.834;2022-08-03T16:15:26;32.00;41.70
58809;DHT22;44579;51.672;7.834;2022-08-03T16:17:53;32.00;41.60
58809;DHT22;44579;51.672;7.834;2022-08-03T16:20:20;32.10;41.60
58809;DHT22;44579;51.672;7.834;2022-08-03T16:23:04;32.10;41.50
58809;DHT22;44579;51.672;7.834;2022-08-03T16:25:38;32.20;41.30
58809;DHT22;44579;51.672;7.834;2022-08-03T16:28:06;32.20;41.30